Time;durP1;ratioP1;P1;durP2;ratioP2;P2;SDS_P1;SDS_P2;PMS_P1;PMS_P2;Temp;Humidity;BMP_temperature;BMP_pressure;BME280_temperature;BME280_humidity;BME280_pressure;Samples;Min_cycle;Max_cycle;Signal;HPM_P1;HPM_P2
2022/07/05 00:01:33;;;;;;;4.25;2.40;;;;;;;15.35;77.34;102073.72;4994815;28;20068;-70
2022/07/05 00:03:58;;;;;;;5.70;2.63;;;;;;;15.43;78.13;102069.38;4994838;28;20026;-70
2022/07/05 00:06:24;;;;;;;9.00;2.60;;;;;;;15.38;77.54;102067.31;4993552;28;20080;-71
2022/07/05 00:08:49;;;;;;;5.53;2.78;;;;;;;15.40;77.88;102067.94;4994412;28;20470;-71
2022/07/05 00:11:14;;;;;;;5.18;2.58;;;;;;;15.37;77.89;102059.72;4994155;28;20109;-72
2022/07/05 00:13:40;;;;;;;7.65;2.92;;;;;;;15.39;78.00;102060.31;4994658;28;20022;-72
2022/07/05 00:16:05;;;;;;;4.10;2.47;;;;;;;15.46;78.68;102067.19;4994560;28;20065;-72
2022/07/05 00:18:30;;;;;;;5.60;3.30;;;;;;;15.40;79.10;102059.34;4993161;28;20030;-70
2022/07/05 00:20:56;;;;;;;5.38;2.83;;;;;;;15.50;78.62;102065.81;5009545;28;20018;-70
2022/07/05 00:23:21;;;;;;;6.10;3.00;;;;;;;15.60;77.73;102068.13;4993253;28;20026;-71
2022/07/05 00:25:46;;;;;;;4.82;3.03;;;;;;;15.57;78.05;102071.09;4994505;28;20034;-72
2022/07/05 00:28:13;;;;;;;8.25;3.42;;;;;;;15.52;78.41;102068.25;4994466;28;20073;-71
2022/07/05 00:30:39;;;;;;;4.38;3.00;;;;;;;15.67;78.49;102066.34;4994355;28;20030;-71
2022/07/05 00:33:04;;;;;;;6.57;3.20;;;;;;;15.50;78.74;102063.22;4994234;28;20442;-71
2022/07/05 00:35:29;;;;;;;7.82;3.47;;;;;;;15.51;79.60;102067.44;5009427;28;20370;-71
2022/07/05 00:37:55;;;;;;;7.90;3.50;;;;;;;15.50;79.65;102055.41;4994400;28;20035;-72
2022/07/05 00:40:20;;;;;;;7.57;3.38;;;;;;;15.67;79.33;102060.34;4994064;28;20042;-72
2022/07/05 00:42:45;;;;;;;5.60;3.25;;;;;;;15.49;79.40;102066.81;4994133;28;20026;-72
2022/07/05 00:45:11;;;;;;;6.40;3.50;;;;;;;15.54;79.49;102063.66;4994176;28;20029;-72
2022/07/05 00:47:36;;;;;;;5.90;3.15;;;;;;;15.58;79.53;102062.28;4994071;28;20037;-72
2022/07/05 00:50:02;;;;;;;4.60;3.20;;;;;;;15.53;79.81;102059.44;4992586;28;20030;-71
2022/07/05 00:52:28;;;;;;;12.05;3.30;;;;;;;15.47;80.30;102060.19;4994034;28;20367;-71
2022/07/05 00:54:54;;;;;;;8.20;3.53;;;;;;;15.65;80.04;102059.72;4993916;28;20109;-71
2022/07/05 00:57:21;;;;;;;10.02;3.67;;;;;;;15.71;79.48;102062.41;4993866;28;20023;-71
2022/07/05 00:59:47;;;;;;;6.90;3.40;;;;;;;15.73;80.07;102067.44;4992645;28;20117;-71
2022/07/05 01:02:13;;;;;;;9.15;3.42;;;;;;;15.81;79.37;102074.31;4992670;28;20478;-71
2022/07/05 01:04:38;;;;;;;7.45;3.40;;;;;;;15.73;79.72;102068.22;4993723;28;20475;-71
2022/07/05 01:07:05;;;;;;;5.72;3.60;;;;;;;15.81;79.31;102063.88;4994079;28;20026;-71
2022/07/05 01:09:33;;;;;;;7.50;3.85;;;;;;;15.83;79.29;102070.53;4992569;28;20477;-71
2022/07/05 01:11:59;;;;;;;6.60;3.58;;;;;;;15.99;78.74;102072.00;4993752;28;20030;-72
2022/07/05 01:14:24;;;;;;;6.80;3.60;;;;;;;15.73;79.51;102073.44;4993952;28;20041;-72
2022/07/05 01:16:51;;;;;;;6.88;3.67;;;;;;;15.64;79.46;102073.75;4993649;28;20018;-71
2022/07/05 01:19:17;;;;;;;6.82;3.60;;;;;;;15.56;80.28;102062.47;4993757;28;20113;-71
2022/07/05 01:21:46;;;;;;;6.22;3.80;;;;;;;15.54;80.93;102066.25;4997772;28;20061;-71
2022/07/05 01:24:13;;;;;;;8.32;3.85;;;;;;;15.69;80.72;102072.22;5000326;28;20030;-71
2022/07/05 01:26:40;;;;;;;10.10;4.05;;;;;;;15.73;80.08;102070.03;4998788;28;20084;-71
2022/07/05 01:29:07;;;;;;;7.68;3.90;;;;;;;15.69;80.50;102063.59;5000125;28;20030;-71
2022/07/05 01:31:33;;;;;;;6.68;3.85;;;;;;;15.55;80.71;102058.25;5000135;28;20397;-71
2022/07/05 01:33:58;;;;;;;11.25;4.40;;;;;;;15.27;81.80;102062.63;4998901;28;20030;-71
2022/07/05 01:36:24;;;;;;;12.90;4.32;;;;;;;15.21;83.54;102055.56;5000015;28;20037;-71
2022/07/05 01:38:50;;;;;;;9.07;4.07;;;;;;;15.18;83.91;102058.53;4998746;28;20417;-71
2022/07/05 01:41:15;;;;;;;7.47;4.15;;;;;;;15.10;83.58;102062.06;4998609;28;20054;-71
2022/07/05 01:43:41;;;;;;;8.85;4.07;;;;;;;15.24;83.53;102068.19;5000056;28;20049;-70
2022/07/05 01:46:08;;;;;;;6.07;4.13;;;;;;;15.25;83.25;102073.22;5000001;28;20034;-71
2022/07/05 01:48:35;;;;;;;8.63;4.65;;;;;;;15.33;83.27;102067.06;4999919;28;20018;-70
2022/07/05 01:51:05;;;;;;;12.98;4.35;;;;;;;15.31;83.43;102064.66;4999974;28;20029;-70
2022/07/05 01:53:32;;;;;;;9.40;4.70;;;;;;;15.29;83.32;102066.66;4999967;28;20146;-70
2022/07/05 01:56:01;;;;;;;7.28;4.13;;;;;;;15.22;83.05;102073.59;5000126;28;20034;-71
2022/07/05 01:58:27;;;;;;;8.93;4.30;;;;;;;15.07;84.03;102071.03;4999853;28;20027;-70
2022/07/05 02:00:54;;;;;;;9.20;4.60;;;;;;;15.07;84.79;102075.44;4999825;28;20037;-70
2022/07/05 02:03:20;;;;;;;11.13;4.30;;;;;;;15.15;84.67;102071.91;4998541;28;20451;-70
2022/07/05 02:05:46;;;;;;;6.38;4.25;;;;;;;15.22;84.61;102063.19;4999886;28;20109;-70
2022/07/05 02:08:13;;;;;;;7.88;4.60;;;;;;;15.34;83.63;102066.09;4998536;28;20022;-70
2022/07/05 02:10:39;;;;;;;6.50;4.18;;;;;;;15.51;82.42;102056.22;4998506;28;20026;-70
2022/07/05 02:13:05;;;;;;;6.30;4.20;;;;;;;15.57;81.84;102065.88;4998474;28;20084;-71
2022/07/05 02:15:32;;;;;;;7.57;4.68;;;;;;;15.39;82.30;102061.09;4999740;28;20026;-71
2022/07/05 02:17:57;;;;;;;7.07;4.57;;;;;;;15.38;83.25;102059.50;4999688;28;20026;-70
2022/07/05 02:20:22;;;;;;;9.40;4.78;;;;;;;15.38;82.92;102064.72;4999868;28;20076;-71
2022/07/05 02:22:47;;;;;;;10.73;4.57;;;;;;;15.32;82.57;102060.25;4998308;28;20026;-71
2022/07/05 02:25:13;;;;;;;9.25;4.97;;;;;;;15.23;83.57;102053.56;4999848;28;20492;-71
2022/07/05 02:27:38;;;;;;;10.57;5.03;;;;;;;15.13;84.45;102056.47;4998142;28;20165;-71
2022/07/05 02:30:04;;;;;;;9.88;4.88;;;;;;;15.09;84.51;102058.66;4999612;28;20034;-70
2022/07/05 02:32:31;;;;;;;9.02;5.20;;;;;;;15.13;84.55;102051.25;4997401;28;20022;-71
2022/07/05 02:34:57;;;;;;;10.70;5.13;;;;;;;15.12;84.03;102047.06;4996617;28;20022;-71
2022/07/05 02:37:22;;;;;;;8.65;4.97;;;;;;;15.06;84.57;102051.22;4995223;28;20053;-71
2022/07/05 02:39:47;;;;;;;11.82;5.10;;;;;;;15.05;83.97;102064.44;4996427;28;20502;-71
2022/07/05 02:42:12;;;;;;;11.77;5.40;;;;;;;14.98;84.16;102056.53;4995047;28;20045;-71
2022/07/05 02:44:38;;;;;;;10.63;5.20;;;;;;;14.94;84.66;102062.31;4996319;28;20042;-71
2022/07/05 02:47:03;;;;;;;8.88;4.90;;;;;;;14.97;84.49;102067.13;4996190;28;20026;-71
2022/07/05 02:49:29;;;;;;;8.30;4.78;;;;;;;14.98;84.51;102066.13;4996378;28;20489;-73
2022/07/05 02:51:54;;;;;;;8.85;4.80;;;;;;;14.87;84.82;102070.03;4994963;28;20098;-71
2022/07/05 02:54:19;;;;;;;7.75;4.90;;;;;;;14.76;85.04;102068.72;4996126;28;20022;-71
2022/07/05 02:56:44;;;;;;;7.45;4.85;;;;;;;14.61;85.91;102066.13;4994767;28;20030;-71
2022/07/05 02:59:10;;;;;;;11.57;5.35;;;;;;;14.62;86.43;102083.38;4996047;28;20026;-71
2022/07/05 03:01:35;;;;;;;12.15;5.70;;;;;;;14.57;86.97;102077.91;5011143;28;20062;-70
2022/07/05 03:04:00;;;;;;;11.38;5.78;;;;;;;14.75;86.25;102069.69;4996070;28;20045;-70
2022/07/05 03:06:25;;;;;;;8.20;4.90;;;;;;;14.79;86.22;102076.16;4995913;28;20029;-70
2022/07/05 03:08:51;;;;;;;9.90;5.50;;;;;;;14.62;86.62;102070.38;4995876;28;20030;-71
2022/07/05 03:11:16;;;;;;;10.88;5.93;;;;;;;14.77;87.12;102080.72;4996025;28;20382;-70
2022/07/05 03:13:42;;;;;;;10.88;5.72;;;;;;;14.78;86.83;102079.72;4995807;28;20105;-70
2022/07/05 03:16:07;;;;;;;9.18;5.68;;;;;;;14.73;86.78;102086.47;4995773;28;20032;-70
2022/07/05 03:18:32;;;;;;;8.55;5.53;;;;;;;14.81;86.84;102083.78;4994306;28;20113;-70
2022/07/05 03:20:58;;;;;;;9.00;6.28;;;;;;;14.74;87.24;102080.31;4995745;28;20123;-70
2022/07/05 03:23:23;;;;;;;11.60;5.60;;;;;;;14.72;87.11;102087.47;4995598;28;20029;-70
2022/07/05 03:25:48;;;;;;;8.07;5.07;;;;;;;14.60;86.30;102092.34;4994275;28;20030;-70
2022/07/05 03:28:14;;;;;;;8.52;5.30;;;;;;;14.60;86.67;102089.75;4995534;28;20025;-71
2022/07/05 03:30:39;;;;;;;10.00;4.50;;;;;;;14.60;86.03;102090.53;4995504;28;20389;-70
2022/07/05 03:33:04;;;;;;;6.97;4.30;;;;;;;14.48;85.65;102097.16;4995655;28;20026;-70
2022/07/05 03:35:29;;;;;;;8.65;4.53;;;;;;;14.52;86.15;102093.22;4995352;28;20528;-71
2022/07/05 03:37:55;;;;;;;8.95;4.70;;;;;;;14.54;86.59;102085.25;4995335;28;20030;-71
2022/07/05 03:40:20;;;;;;;7.30;4.40;;;;;;;14.56;86.56;102094.50;4995306;28;20104;-70
2022/07/05 03:42:45;;;;;;;8.10;4.63;;;;;;;14.57;86.37;102101.31;4993974;28;20022;-71
2022/07/05 03:45:11;;;;;;;8.68;5.80;;;;;;;14.66;86.71;102096.81;4995096;28;20034;-71
2022/07/05 03:47:36;;;;;;;7.07;4.88;;;;;;;14.80;85.88;102101.19;4995090;28;20416;-71
2022/07/05 03:50:03;;;;;;;9.70;5.75;;;;;;;15.00;85.09;102100.59;4995140;28;20045;-71
2022/07/05 03:52:28;;;;;;;9.35;6.18;;;;;;;15.06;85.30;102099.88;4993729;28;20030;-71
2022/07/05 03:54:53;;;;;;;12.35;6.20;;;;;;;15.06;84.42;102105.88;4995132;28;20029;-69
2022/07/05 03:57:19;;;;;;;10.77;6.38;;;;;;;15.08;84.78;102100.50;4993642;28;20385;-71
2022/07/05 03:59:44;;;;;;;10.30;6.30;;;;;;;15.05;85.10;102101.66;4993661;28;20026;-71
2022/07/05 04:02:10;;;;;;;10.45;6.57;;;;;;;15.16;85.33;102099.56;4993848;28;20026;-70
2022/07/05 04:04:35;;;;;;;11.40;7.03;;;;;;;15.23;84.31;102097.84;4993930;28;20073;-70
2022/07/05 04:07:00;;;;;;;14.48;6.85;;;;;;;15.30;84.44;102098.69;4994816;28;20525;-70
2022/07/05 04:09:26;;;;;;;10.65;6.63;;;;;;;15.45;84.23;102109.88;4994841;28;20027;-70
2022/07/05 04:11:51;;;;;;;16.88;7.32;;;;;;;15.45;83.94;102102.06;4994589;28;20096;-71
2022/07/05 04:14:16;;;;;;;11.80;6.65;;;;;;;15.48;83.51;102100.88;4994705;28;20081;-71
2022/07/05 04:16:41;;;;;;;10.88;6.65;;;;;;;15.59;83.23;102100.34;4994542;28;20080;-71
2022/07/05 04:19:07;;;;;;;10.80;6.32;;;;;;;15.51;83.24;102103.13;4993411;28;20037;-70
2022/07/05 04:21:33;;;;;;;11.60;7.00;;;;;;;15.46;84.37;102106.28;4994595;28;20553;-70
2022/07/05 04:23:58;;;;;;;12.07;7.22;;;;;;;15.39;84.83;102112.41;4994398;28;20109;-70
2022/07/05 04:26:24;;;;;;;10.95;6.97;;;;;;;15.48;85.10;102100.88;4994750;28;20137;-70
2022/07/05 04:28:50;;;;;;;9.48;7.18;;;;;;;15.55;84.52;102102.53;4993117;28;20446;-70
2022/07/05 04:31:15;;;;;;;12.50;7.15;;;;;;;15.70;83.60;102096.47;4993054;28;20033;-70
2022/07/05 04:33:40;;;;;;;15.70;7.85;;;;;;;15.84;83.06;102108.59;4994286;28;20030;-71
2022/07/05 04:36:06;;;;;;;12.18;7.53;;;;;;;15.79;82.51;102108.38;4994310;28;20425;-70
2022/07/05 04:38:31;;;;;;;13.98;7.25;;;;;;;15.84;83.16;102100.00;4994433;28;20042;-70
2022/07/05 04:40:56;;;;;;;11.00;7.40;;;;;;;15.95;82.50;102105.47;4992831;28;20117;-70
2022/07/05 04:43:22;;;;;;;11.10;7.22;;;;;;;16.04;82.46;102107.94;4992910;28;20073;-70
2022/07/05 04:45:47;;;;;;;12.07;7.38;;;;;;;16.20;81.89;102103.25;4994106;28;20028;-71
2022/07/05 04:48:12;;;;;;;15.60;7.97;;;;;;;16.18;81.85;102104.44;4993985;28;20025;-71
2022/07/05 04:50:38;;;;;;;11.30;8.07;;;;;;;16.29;81.88;102105.69;5009147;28;20032;-71
2022/07/05 04:53:03;;;;;;;12.25;7.80;;;;;;;16.44;81.11;102108.97;4994031;28;20022;-70
2022/07/05 04:55:28;;;;;;;16.73;8.55;;;;;;;16.52;80.24;102110.63;4993431;28;20030;-70
2022/07/05 04:57:54;;;;;;;17.58;7.93;;;;;;;16.62;79.83;102111.06;4992678;28;20030;-70
2022/07/05 05:00:19;;;;;;;12.75;8.23;;;;;;;16.49;80.61;102103.19;4994107;28;20130;-70
2022/07/05 05:02:44;;;;;;;10.95;8.02;;;;;;;16.46;80.82;102107.00;4992689;28;20058;-70
2022/07/05 05:05:10;;;;;;;12.90;8.07;;;;;;;16.53;80.72;102107.00;4994096;28;20033;-72
2022/07/05 05:07:37;;;;;;;11.93;8.38;;;;;;;16.52;81.30;102110.63;4992597;28;20014;-71
2022/07/05 05:10:03;;;;;;;13.68;8.25;;;;;;;16.72;80.40;102111.53;4993813;28;20049;-70
2022/07/05 05:12:28;;;;;;;16.48;8.70;;;;;;;16.84;79.78;102112.59;4993835;28;20034;-70
2022/07/05 05:14:53;;;;;;;13.07;8.70;;;;;;;16.87;79.87;102108.78;4993770;28;20034;-70
2022/07/05 05:17:19;;;;;;;16.20;9.07;;;;;;;16.89;80.10;102118.03;4993741;28;20050;-71
2022/07/05 05:19:44;;;;;;;14.43;8.95;;;;;;;17.01;79.30;102115.66;4993851;28;20033;-70
2022/07/05 05:22:10;;;;;;;11.43;8.60;;;;;;;16.91;79.54;102116.00;4994492;28;20390;-70
2022/07/05 05:24:35;;;;;;;16.17;9.48;;;;;;;17.21;79.92;102122.75;4993719;28;20113;-71
2022/07/05 05:27:01;;;;;;;14.73;9.07;;;;;;;17.19;79.46;102109.06;4993776;28;20018;-71
2022/07/05 05:29:26;;;;;;;15.88;9.55;;;;;;;17.07;80.11;102120.09;4993584;28;20054;-71
2022/07/05 05:31:52;;;;;;;17.05;9.02;;;;;;;17.17;79.83;102118.91;4993615;28;20026;-71
2022/07/05 05:34:17;;;;;;;13.88;9.25;;;;;;;17.26;80.00;102112.47;4991985;28;20453;-71
2022/07/05 05:36:42;;;;;;;15.38;9.68;;;;;;;17.30;80.55;102121.53;4992029;28;20080;-71
2022/07/05 05:39:08;;;;;;;15.80;8.85;;;;;;;17.22;80.94;102124.34;4992469;28;20031;-71
2022/07/05 05:41:34;;;;;;;16.48;8.93;;;;;;;17.90;77.80;102125.00;5008205;28;20494;-72
2022/07/05 05:43:59;;;;;;;11.68;7.50;;;;;;;20.76;67.21;102127.56;4991094;28;20073;-71
2022/07/05 05:46:24;;;;;;;11.15;7.13;;;;;;;24.96;54.46;102120.91;4993548;28;20057;-71
2022/07/05 05:48:49;;;;;;;12.68;6.60;;;;;;;27.93;44.24;102127.13;4993533;28;20022;-72
2022/07/05 05:51:15;;;;;;;8.52;5.47;;;;;;;29.32;40.47;102126.00;4992471;28;20030;-72
2022/07/05 05:53:40;;;;;;;9.48;4.88;;;;;;;29.91;38.42;102130.16;4993437;28;20022;-72
2022/07/05 05:56:05;;;;;;;9.38;4.57;;;;;;;30.26;38.13;102132.69;4993454;28;20073;-72
2022/07/05 05:58:31;;;;;;;8.23;4.10;;;;;;;29.84;38.41;102128.94;4993060;28;20390;-72
2022/07/05 06:00:56;;;;;;;7.53;4.20;;;;;;;30.73;37.14;102128.28;4991498;28;20536;-72
2022/07/05 06:03:23;;;;;;;6.60;4.03;;;;;;;30.67;36.47;102134.75;4993265;28;20023;-72
2022/07/05 06:05:49;;;;;;;7.88;3.50;;;;;;;30.73;36.33;102128.28;4991914;28;20061;-72
2022/07/05 06:08:15;;;;;;;7.65;3.60;;;;;;;29.59;37.73;102133.44;4993232;28;20108;-72
2022/07/05 06:10:41;;;;;;;6.97;3.33;;;;;;;29.82;37.70;102131.06;4996921;28;20029;-72
2022/07/05 06:13:08;;;;;;;7.18;3.08;;;;;;;30.88;35.63;102132.59;4996843;28;20034;-71
2022/07/05 06:15:34;;;;;;;7.68;3.25;;;;;;;30.53;36.27;102138.16;4996863;28;20026;-72
2022/07/05 06:17:59;;;;;;;5.90;2.88;;;;;;;30.84;34.66;102136.91;4996112;28;20027;-72
2022/07/05 06:20:28;;;;;;;4.88;2.67;;;;;;;27.77;39.74;102144.94;4996864;28;20465;-70
2022/07/05 06:22:54;;;;;;;7.93;2.90;;;;;;;25.95;44.62;102138.06;4995384;28;20034;-70
2022/07/05 06:25:20;;;;;;;5.70;2.80;;;;;;;23.11;53.20;102138.81;4995306;28;20030;-71
2022/07/05 06:27:51;;;;;;;6.85;2.60;;;;;;;21.80;56.29;102147.22;4996647;28;20022;-71
2022/07/05 06:30:19;;;;;;;8.93;2.30;;;;;;;21.25;55.33;102152.72;4996547;28;20025;-71
2022/07/05 06:32:46;;;;;;;3.40;1.80;;;;;;;21.10;56.26;102157.59;4995946;28;20049;-71
2022/07/05 06:35:11;;;;;;;2.65;1.60;;;;;;;21.12;56.25;102153.75;4995001;28;20136;-71
2022/07/05 06:37:43;;;;;;;7.40;1.90;;;;;;;20.96;55.83;102156.97;4996046;28;20113;-71
2022/07/05 06:40:11;;;;;;;4.85;1.60;;;;;;;20.77;57.25;102153.56;4996505;28;20065;-70
2022/07/05 06:42:36;;;;;;;5.43;1.88;;;;;;;20.61;57.77;102151.56;4996274;28;20079;-70
2022/07/05 06:45:02;;;;;;;8.05;2.10;;;;;;;20.46;58.90;102154.56;4996395;28;20072;-71
2022/07/05 06:47:27;;;;;;;2.72;1.80;;;;;;;20.63;60.31;102160.84;4996304;28;20049;-70
2022/07/05 06:49:52;;;;;;;5.85;2.22;;;;;;;20.47;59.03;102164.03;4996715;28;20026;-70
2022/07/05 06:52:18;;;;;;;7.22;2.60;;;;;;;20.62;59.10;102166.31;4997565;28;20504;-70
2022/07/05 06:54:43;;;;;;;5.90;2.67;;;;;;;20.92;58.30;102166.34;4994690;28;20058;-70
2022/07/05 06:57:08;;;;;;;7.28;2.45;;;;;;;21.43;57.34;102170.28;4996289;28;20113;-70
2022/07/05 06:59:35;;;;;;;4.72;2.05;;;;;;;21.53;56.57;102169.75;4996078;28;20031;-71
2022/07/05 07:02:03;;;;;;;6.40;2.35;;;;;;;21.50;56.54;102178.88;4996912;28;20022;-70
2022/07/05 07:04:28;;;;;;;5.50;1.80;;;;;;;21.38;57.02;102170.19;4995477;28;20034;-70
2022/07/05 07:06:54;;;;;;;6.32;2.33;;;;;;;20.92;58.26;102168.97;4993315;28;20018;-70
2022/07/05 07:09:20;;;;;;;7.43;1.80;;;;;;;20.66;57.39;102173.53;4995127;28;20085;-70
2022/07/05 07:11:47;;;;;;;5.00;2.10;;;;;;;20.30;59.54;102184.78;4994204;28;20022;-70
2022/07/05 07:14:12;;;;;;;5.53;2.13;;;;;;;20.45;59.31;102177.34;4995646;28;20381;-70
2022/07/05 07:16:37;;;;;;;5.90;1.90;;;;;;;20.50;57.67;102177.50;4995362;28;20026;-69
2022/07/05 07:19:03;;;;;;;3.60;1.40;;;;;;;20.70;56.74;102177.31;4995036;28;20097;-69
2022/07/05 07:21:28;;;;;;;2.78;1.40;;;;;;;21.12;55.38;102179.22;5010718;28;20030;-70
2022/07/05 07:23:53;;;;;;;12.10;1.60;;;;;;;21.55;54.86;102178.19;4995534;28;20022;-70
2022/07/05 07:26:19;;;;;;;5.25;1.80;;;;;;;21.50;52.98;102181.53;4994229;28;20033;-69
2022/07/05 07:28:44;;;;;;;3.45;1.50;;;;;;;21.59;53.88;102182.00;4994167;28;20065;-71
2022/07/05 07:31:10;;;;;;;5.60;1.85;;;;;;;21.53;53.32;102181.06;4995495;28;20038;-70
2022/07/05 07:33:35;;;;;;;5.18;1.60;;;;;;;22.62;51.26;102195.59;4995284;28;20022;-70
2022/07/05 07:36:00;;;;;;;6.57;1.80;;;;;;;23.54;49.27;102195.44;4993070;28;20121;-70
2022/07/05 07:38:26;;;;;;;1.98;1.52;;;;;;;23.67;47.99;102193.50;4995190;28;20049;-70
2022/07/05 07:40:52;;;;;;;9.50;1.65;;;;;;;23.81;47.93;102187.69;4993700;28;20043;-70
2022/07/05 07:43:17;;;;;;;5.78;2.00;;;;;;;23.64;48.45;102190.31;4993912;28;20026;-70
2022/07/05 07:45:43;;;;;;;3.25;1.60;;;;;;;23.15;48.76;102191.88;4994857;28;20130;-70
2022/07/05 07:48:08;;;;;;;7.50;1.77;;;;;;;23.30;48.30;102193.97;4993696;28;20068;-70
2022/07/05 07:50:34;;;;;;;3.67;1.45;;;;;;;24.05;46.10;102187.47;4995057;28;20363;-70
2022/07/05 07:52:59;;;;;;;5.68;1.70;;;;;;;23.77;47.62;102193.72;4993544;28;20022;-70
2022/07/05 07:55:25;;;;;;;4.53;1.42;;;;;;;23.20;47.66;102186.69;5009948;28;20022;-70
2022/07/05 07:57:50;;;;;;;5.10;1.60;;;;;;;23.81;45.86;102190.31;4993607;28;20022;-72
2022/07/05 08:00:16;;;;;;;7.13;1.50;;;;;;;23.24;47.11;102190.44;4992506;28;20023;-70
2022/07/05 08:02:42;;;;;;;4.95;1.48;;;;;;;23.11;48.74;102193.38;4995969;28;20018;-71
2022/07/05 08:05:09;;;;;;;9.57;2.20;;;;;;;23.13;48.45;102196.56;4994780;28;20540;-71
2022/07/05 08:07:38;;;;;;;8.27;1.55;;;;;;;23.01;48.53;102193.19;4990230;28;20418;-70
2022/07/05 08:10:05;;;;;;;5.05;1.40;;;;;;;23.50;47.20;102183.75;4996294;28;20112;-71
2022/07/05 08:12:31;;;;;;;2.88;1.42;;;;;;;24.02;45.89;102187.97;4995355;28;20038;-71
2022/07/05 08:14:56;;;;;;;6.03;1.60;;;;;;;24.22;43.28;102196.16;4995395;28;20513;-71
2022/07/05 08:17:28;;;;;;;6.55;1.30;;;;;;;23.67;44.57;102188.22;4994286;28;20053;-71
2022/07/05 08:22:37;;;;;;;10.20;1.80;;;;;;;24.67;45.26;102197.03;4995006;28;20169;-70
2022/07/05 08:25:03;;;;;;;4.75;1.50;;;;;;;24.88;43.13;102195.38;4994261;28;20058;-70
2022/07/05 08:27:28;;;;;;;5.57;1.60;;;;;;;24.75;43.01;102180.72;4994812;28;20036;-69
2022/07/05 08:29:53;;;;;;;3.42;1.38;;;;;;;24.14;45.01;102198.44;4992059;28;20026;-70
2022/07/05 08:32:18;;;;;;;5.38;1.15;;;;;;;23.49;44.00;102202.47;4991636;28;20034;-70
2022/07/05 08:34:44;;;;;;;5.38;1.23;;;;;;;22.61;47.30;102202.69;4992389;28;20389;-70
2022/07/05 08:37:10;;;;;;;3.72;1.40;;;;;;;22.69;47.61;102198.88;4992605;28;20459;-70
2022/07/05 08:39:35;;;;;;;4.70;1.20;;;;;;;22.84;45.20;102195.75;4992119;28;20053;-71
2022/07/05 08:42:01;;;;;;;1.98;0.90;;;;;;;23.51;45.15;102197.75;4993433;28;20129;-70
2022/07/05 08:44:35;;;;;;;6.10;1.23;;;;;;;23.37;43.76;102199.91;4993450;28;20108;-70
2022/07/05 08:47:02;;;;;;;3.30;1.20;;;;;;;23.98;42.78;102200.88;4992211;28;20224;-70
2022/07/05 08:49:32;;;;;;;5.88;1.30;;;;;;;25.05;40.07;102204.03;4992144;28;20057;-70
2022/07/05 08:51:59;;;;;;;5.13;1.38;;;;;;;25.13;40.01;102197.50;4993986;28;20034;-70
2022/07/05 08:54:25;;;;;;;5.80;1.38;;;;;;;24.53;41.14;102194.75;4992947;28;20032;-70
2022/07/05 08:56:51;;;;;;;6.25;1.23;;;;;;;24.92;41.04;102197.28;4992347;28;20090;-70
2022/07/05 08:59:17;;;;;;;4.25;1.20;;;;;;;24.73;41.49;102196.03;4993741;28;20027;-70
2022/07/05 09:01:45;;;;;;;4.43;1.25;;;;;;;25.05;39.69;102168.84;4993710;28;20035;-70
2022/07/05 09:04:11;;;;;;;3.58;1.08;;;;;;;25.23;39.15;102194.94;4993792;28;20080;-70
2022/07/05 09:06:40;;;;;;;3.80;1.23;;;;;;;25.67;38.67;102197.44;4993827;28;20026;-70
2022/07/05 09:09:06;;;;;;;4.45;1.30;;;;;;;25.56;38.31;102201.84;4993647;28;20062;-70
2022/07/05 09:11:41;;;;;;;2.83;1.10;;;;;;;25.32;39.68;102197.94;4993515;28;20049;-70
2022/07/05 09:14:21;;;;;;;5.60;1.30;;;;;;;25.34;40.13;102196.63;4993694;28;20030;-70
2022/07/05 09:16:47;;;;;;;6.65;1.35;;;;;;;25.17;39.45;102196.75;4992450;28;20088;-71
2022/07/05 09:19:12;;;;;;;3.63;1.20;;;;;;;25.38;39.65;102203.03;4991721;28;20045;-73
2022/07/05 09:21:38;;;;;;;2.65;1.20;;;;;;;24.66;42.09;102212.09;4991707;28;20100;-70
2022/07/05 09:24:05;;;;;;;4.22;1.30;;;;;;;24.16;43.61;102212.19;4990696;28;20021;-71
2022/07/05 09:26:43;;;;;;;7.65;1.52;;;;;;;23.86;42.23;102214.16;4991144;28;20030;-71
2022/07/05 09:29:10;;;;;;;4.28;1.30;;;;;;;24.56;42.28;102213.81;4993694;28;20038;-71
2022/07/05 09:31:46;;;;;;;4.90;1.20;;;;;;;23.82;43.94;102218.34;4993398;28;20472;-71
2022/07/05 09:34:14;;;;;;;5.35;1.17;;;;;;;22.98;45.97;102208.44;4993553;28;20481;-71
2022/07/05 09:36:58;;;;;;;3.75;1.17;;;;;;;23.69;44.09;102215.19;4993438;28;20061;-72
2022/07/05 09:39:30;;;;;;;7.38;1.90;;;;;;;24.57;42.03;102210.09;4993673;28;20026;-71
2022/07/05 09:42:19;;;;;;;5.93;1.05;;;;;;;24.67;42.02;102215.53;4994048;28;20157;-71
2022/07/05 09:44:46;;;;;;;17.67;1.70;;;;;;;25.52;39.58;102215.84;4997276;28;20025;-71
2022/07/05 09:47:16;;;;;;;5.15;1.35;;;;;;;26.08;39.79;102221.56;4997389;28;20389;-71
2022/07/05 09:49:52;;;;;;;5.35;1.20;;;;;;;25.97;39.00;102212.75;4997254;28;20429;-72
2022/07/05 09:52:33;;;;;;;5.95;1.20;;;;;;;25.13;40.33;102218.66;4997267;28;20478;-71
2022/07/05 09:55:13;;;;;;;5.38;1.30;;;;;;;24.76;40.45;102217.47;4996044;28;20065;-72
2022/07/05 09:57:40;;;;;;;4.90;1.20;;;;;;;24.39;42.46;102222.53;4995707;28;20032;-71
2022/07/05 10:00:11;;;;;;;2.85;1.10;;;;;;;25.97;40.15;102222.53;4995948;28;20030;-70
2022/07/05 10:02:38;;;;;;;4.55;1.27;;;;;;;26.48;37.93;102223.59;4997083;28;20068;-72
2022/07/05 10:05:17;;;;;;;4.78;1.20;;;;;;;26.25;36.92;102221.38;4997131;28;20382;-72
2022/07/05 10:07:45;;;;;;;5.53;1.27;;;;;;;26.96;36.69;102228.81;4996043;28;20050;-71
2022/07/05 10:10:12;;;;;;;3.78;1.00;;;;;;;27.14;36.62;102216.91;4996920;28;20022;-70
2022/07/05 10:12:39;;;;;;;4.53;1.02;;;;;;;27.00;36.96;102216.63;4995589;28;20459;-70
2022/07/05 10:15:08;;;;;;;5.13;1.20;;;;;;;25.17;38.29;102217.13;4996819;28;20053;-71
2022/07/05 10:17:37;;;;;;;7.88;1.27;;;;;;;24.84;39.85;102215.44;4996708;28;20109;-70
2022/07/05 10:20:12;;;;;;;8.38;1.20;;;;;;;25.15;39.06;102217.38;4995528;28;20517;-70
2022/07/05 10:22:38;;;;;;;6.25;1.40;;;;;;;26.23;38.19;102228.78;4996750;28;20037;-71
2022/07/05 10:25:04;;;;;;;5.78;1.30;;;;;;;24.70;41.80;102218.47;4996849;28;20026;-70
2022/07/05 10:27:32;;;;;;;5.82;1.23;;;;;;;24.23;42.71;102226.03;4996548;28;20035;-72
2022/07/05 10:29:58;;;;;;;9.73;1.35;;;;;;;23.98;42.84;102229.13;4996589;28;20149;-70
2022/07/05 10:32:24;;;;;;;7.32;1.40;;;;;;;25.33;40.75;102220.72;4996421;28;20109;-70
2022/07/05 10:34:51;;;;;;;3.45;1.20;;;;;;;25.93;39.28;102216.97;4996101;28;20058;-70
2022/07/05 10:37:17;;;;;;;4.72;1.13;;;;;;;25.37;37.98;102225.25;4995022;28;20030;-71
2022/07/05 10:39:42;;;;;;;3.25;1.17;;;;;;;25.66;39.01;102228.41;4996245;28;20101;-71
2022/07/05 10:42:08;;;;;;;3.97;1.30;;;;;;;26.63;37.58;102222.88;4994786;28;20054;-71
2022/07/05 10:44:34;;;;;;;4.78;1.02;;;;;;;27.13;36.81;102221.41;4996327;28;20041;-71
2022/07/05 10:47:10;;;;;;;6.18;1.20;;;;;;;25.23;39.00;102224.06;4994944;28;20030;-71
2022/07/05 10:49:36;;;;;;;5.25;1.35;;;;;;;24.76;40.73;102230.69;4995809;28;20040;-71
2022/07/05 10:52:02;;;;;;;2.88;1.20;;;;;;;24.81;41.25;102234.44;4993636;28;20049;-71
2022/07/05 10:54:28;;;;;;;5.82;1.42;;;;;;;25.63;39.25;102236.84;4993817;28;20033;-71
2022/07/05 10:57:31;;;;;;;4.82;1.38;;;;;;;25.87;39.20;102228.59;4995754;28;20033;-71
2022/07/05 11:00:08;;;;;;;4.45;1.20;;;;;;;25.30;38.30;102227.31;4936306;29;20036;-72
2022/07/05 11:02:33;;;;;;;5.88;1.13;;;;;;;25.02;40.84;102222.25;4936103;29;20039;-71
2022/07/05 11:04:59;;;;;;;6.07;1.48;;;;;;;23.85;42.83;102240.78;4967315;28;20042;-71
2022/07/05 11:07:57;;;;;;;5.10;1.42;;;;;;;24.97;40.37;102239.66;4994422;28;20019;-71
2022/07/05 11:10:22;;;;;;;4.50;1.40;;;;;;;26.13;38.15;102242.00;4994199;28;20026;-71
2022/07/05 11:12:48;;;;;;;4.75;1.10;;;;;;;25.66;40.19;102238.19;4995172;28;20027;-72
2022/07/05 11:15:14;;;;;;;2.45;0.98;;;;;;;25.22;40.46;102248.91;4995137;28;20033;-71
2022/07/05 11:17:39;;;;;;;4.65;1.15;;;;;;;25.85;38.02;102254.50;4995150;28;20481;-71
2022/07/05 11:20:05;;;;;;;3.72;1.27;;;;;;;26.06;38.55;102245.63;4995010;28;20030;-72
2022/07/05 11:22:31;;;;;;;4.95;0.90;;;;;;;26.12;36.97;102246.47;4992736;28;20084;-71
2022/07/05 11:24:58;;;;;;;5.72;1.30;;;;;;;26.01;38.68;102242.16;4994243;28;20030;-71